createdAt,value
2019-04-16T00:01:49.093Z,92.46
2019-04-16T00:05:04.625Z,92.48
2019-04-16T00:08:27.119Z,92.54
2019-04-16T00:11:28.628Z,92.61
2019-04-16T00:14:35.319Z,95.75
2019-04-16T00:17:38.727Z,97.37
2019-04-16T00:21:09.859Z,96.86
2019-04-16T00:24:22.140Z,93.97
2019-04-16T00:27:28.269Z,94.12
2019-04-16T00:30:30.378Z,93.55
2019-04-16T00:33:33.488Z,92.25
2019-04-16T00:36:36.405Z,92.50
2019-04-16T00:39:39.353Z,93.29
2019-04-16T00:42:42.584Z,94.98
2019-04-16T00:45:45.542Z,93.60
2019-04-16T00:48:48.493Z,92.95
2019-04-16T00:51:52.040Z,93.87
2019-04-16T00:54:55.378Z,93.93
2019-04-16T00:57:58.589Z,96.30
2019-04-16T01:01:02.970Z,96.90
2019-04-16T01:04:06.138Z,95.40
2019-04-16T01:07:09.508Z,95.74
2019-04-16T01:10:12.857Z,95.55
2019-04-16T01:13:16.300Z,95.29
2019-04-16T01:16:19.252Z,93.38
2019-04-16T01:19:22.261Z,96.04
2019-04-16T01:22:25.594Z,95.96
2019-04-16T01:25:28.518Z,95.15
2019-04-16T01:28:33.936Z,95.79
2019-04-16T01:32:12.170Z,97.78
2019-04-16T01:35:29.609Z,95.15
2019-04-16T01:39:14.840Z,99.22
2019-04-16T01:42:02.796Z,99.27
2019-04-16T01:45:06.716Z,100.00
2019-04-16T01:48:09.851Z,100.00
2019-04-16T01:51:15.408Z,97.97
2019-04-16T01:54:22.538Z,99.51
2019-04-16T01:57:23.123Z,97.49
2019-04-16T02:00:26.388Z,99.17
2019-04-16T02:03:29.332Z,96.78
2019-04-16T02:06:32.966Z,98.02
2019-04-16T02:09:36.301Z,98.80
2019-04-16T02:12:43.668Z,100.00
2019-04-16T02:15:44.412Z,100.00
2019-04-16T02:18:47.359Z,100.00
2019-04-16T02:21:50.307Z,100.00
2019-04-16T02:24:54.716Z,100.00
2019-04-16T02:27:57.884Z,100.00
2019-04-16T02:31:01.086Z,100.00
2019-04-16T02:34:04.022Z,100.00
2019-04-16T02:37:07.294Z,100.00
2019-04-16T02:40:16.903Z,100.00
2019-04-16T02:43:15.884Z,100.00
2019-04-16T02:46:18.825Z,100.00
2019-04-16T02:49:24.537Z,100.00
2019-04-16T02:52:51.215Z,100.00
2019-04-16T02:56:18.770Z,100.00
2019-04-16T02:59:23.243Z,100.00
2019-04-16T03:02:53.619Z,100.00
2019-04-16T03:05:55.132Z,100.00
2019-04-16T03:08:58.506Z,100.00
2019-04-16T03:12:01.450Z,100.00
2019-04-16T03:15:05.559Z,100.00
2019-04-16T03:18:14.134Z,100.00
2019-04-16T03:21:14.042Z,100.00
2019-04-16T03:24:17.284Z,100.00
2019-04-16T03:27:22.896Z,100.00
2019-04-16T03:30:25.960Z,100.00
2019-04-16T03:33:29.460Z,100.00
2019-04-16T03:36:32.388Z,100.00
2019-04-16T03:39:35.660Z,100.00
2019-04-16T03:42:38.921Z,100.00
2019-04-16T03:45:41.881Z,100.00
2019-04-16T03:48:46.517Z,100.00
2019-04-16T03:51:49.445Z,100.00
2019-04-16T03:54:54.120Z,100.00
2019-04-16T03:57:57.853Z,100.00
2019-04-16T04:01:01.064Z,100.00
2019-04-16T04:04:04.551Z,100.00
2019-04-16T04:07:08.763Z,100.00
2019-04-16T04:10:12.572Z,100.00
2019-04-16T04:13:18.592Z,100.00
2019-04-16T04:16:21.123Z,100.00
2019-04-16T04:19:24.697Z,100.00
2019-04-16T04:22:27.643Z,100.00
2019-04-16T04:25:42.866Z,100.00
2019-04-16T04:28:48.639Z,100.00
2019-04-16T04:31:53.312Z,100.00
2019-04-16T04:34:56.237Z,100.00
2019-04-16T04:38:00.745Z,100.00
2019-04-16T04:41:04.964Z,100.00
2019-04-16T04:44:08.574Z,100.00
2019-04-16T04:47:11.983Z,100.00
2019-04-16T04:50:15.384Z,100.00
2019-04-16T04:53:19.922Z,100.00
2019-04-16T04:56:27.740Z,100.00
2019-04-16T04:59:30.028Z,100.00
2019-04-16T05:02:33.055Z,100.00
2019-04-16T05:05:43.713Z,100.00
2019-04-16T05:08:47.031Z,100.00
2019-04-16T05:11:50.034Z,100.00
2019-04-16T05:14:57.367Z,100.00
2019-04-16T05:17:58.470Z,100.00
2019-04-16T05:21:02.072Z,100.00
2019-04-16T05:24:04.984Z,100.00
2019-04-16T05:27:08.506Z,100.00
2019-04-16T05:30:13.243Z,100.00
2019-04-16T05:33:16.798Z,100.00
2019-04-16T05:36:21.367Z,100.00
2019-04-16T05:39:28.517Z,100.00
2019-04-16T05:42:32.357Z,100.00
2019-04-16T05:45:37.671Z,100.00
2019-04-16T05:48:40.506Z,100.00
2019-04-16T05:51:43.787Z,100.00
2019-04-16T05:55:04.802Z,100.00
2019-04-16T05:58:08.045Z,100.00
2019-04-16T06:01:36.904Z,100.00
2019-04-16T06:04:40.940Z,100.00
2019-04-16T06:07:44.185Z,100.00
2019-04-16T06:10:51.078Z,100.00
2019-04-16T06:14:03.602Z,100.00
2019-04-16T06:17:25.798Z,100.00
2019-04-16T06:20:37.565Z,100.00
2019-04-16T06:24:09.864Z,100.00
2019-04-16T06:27:35.914Z,100.00
2019-04-16T06:31:10.121Z,100.00
2019-04-16T06:34:31.164Z,100.00
2019-04-16T06:37:40.126Z,100.00
2019-04-16T06:41:05.680Z,100.00
2019-04-16T06:44:15.524Z,100.00
2019-04-16T06:47:47.660Z,100.00
2019-04-16T06:51:11.691Z,100.00
2019-04-16T06:54:31.876Z,100.00
2019-04-16T06:58:12.538Z,100.00
2019-04-16T07:01:36.973Z,100.00
2019-04-16T07:04:51.382Z,100.00
2019-04-16T07:08:20.135Z,100.00
2019-04-16T07:11:23.971Z,100.00
2019-04-16T07:14:28.359Z,100.00
2019-04-16T07:17:33.665Z,100.00
2019-04-16T07:20:37.421Z,100.00
2019-04-16T07:23:40.452Z,100.00
2019-04-16T07:26:47.653Z,100.00
2019-04-16T07:29:52.117Z,100.00
2019-04-16T07:33:17.779Z,100.00
2019-04-16T07:36:31.291Z,100.00
2019-04-16T07:39:46.457Z,100.00
2019-04-16T07:42:58.959Z,100.00
2019-04-16T07:46:20.781Z,100.00
2019-04-16T07:49:43.700Z,100.00
2019-04-16T07:53:18.566Z,96.95
2019-04-16T07:56:24.435Z,97.32
2019-04-16T07:59:31.970Z,93.65
2019-04-16T08:02:33.660Z,95.26
2019-04-16T08:05:37.726Z,95.81
2019-04-16T08:08:42.777Z,95.06
2019-04-16T08:11:46.168Z,94.47
2019-04-16T08:14:49.998Z,96.59
2019-04-16T08:17:53.342Z,92.31
2019-04-16T08:21:02.153Z,88.94
2019-04-16T08:24:05.293Z,89.56
2019-04-16T08:27:10.412Z,92.69
2019-04-16T08:30:14.255Z,91.45
2019-04-16T08:33:17.256Z,90.85
2019-04-16T08:36:20.665Z,88.18
2019-04-16T08:39:23.702Z,89.01
2019-04-16T08:42:29.482Z,91.60
2019-04-16T08:45:31.868Z,91.93
2019-04-16T08:48:34.782Z,91.67
2019-04-16T08:51:38.318Z,88.65
2019-04-16T08:54:41.278Z,90.70
2019-04-16T08:57:46.775Z,88.17
2019-04-16T09:00:49.610Z,87.71
2019-04-16T09:03:52.539Z,90.18
2019-04-16T09:07:09.600Z,93.58
2019-04-16T09:10:10.122Z,88.47
2019-04-16T09:13:09.144Z,87.88
2019-04-16T09:16:12.140Z,90.05
2019-04-16T09:19:16.531Z,87.94
2019-04-16T09:22:20.841Z,85.10
2019-04-16T09:25:55.630Z,86.86
2019-04-16T09:29:16.939Z,89.13
2019-04-16T09:32:28.224Z,87.82
2019-04-16T09:35:56.620Z,86.41
2019-04-16T09:39:37.690Z,84.06
2019-04-16T09:42:41.086Z,85.74
2019-04-16T09:45:45.232Z,84.37
2019-04-16T09:48:50.142Z,83.41
2019-04-16T09:51:53.442Z,83.41
2019-04-16T09:54:57.107Z,80.90
2019-04-16T09:58:06.911Z,83.89
2019-04-16T10:01:11.027Z,82.00
2019-04-16T10:04:16.636Z,78.66
2019-04-16T10:07:19.884Z,80.93
2019-04-16T10:10:24.253Z,81.82
2019-04-16T10:13:31.805Z,83.80
2019-04-16T10:16:34.127Z,82.30
2019-04-16T10:19:37.139Z,81.67
2019-04-16T10:22:40.466Z,78.10
2019-04-16T10:25:43.891Z,79.72
2019-04-16T10:28:46.902Z,74.83
2019-04-16T10:31:50.854Z,75.04
2019-04-16T10:34:54.477Z,77.70
2019-04-16T10:38:01.345Z,75.34
2019-04-16T10:41:17.631Z,76.82
2019-04-16T10:44:40.287Z,77.61
2019-04-16T10:48:15.320Z,75.70
2019-04-16T10:51:50.466Z,74.72
2019-04-16T10:55:05.381Z,71.90
2019-04-16T10:58:44.132Z,72.40
2019-04-16T11:02:09.763Z,72.75
2019-04-16T11:05:24.528Z,72.32
2019-04-16T11:08:27.618Z,67.61
2019-04-16T11:11:31.053Z,68.86
2019-04-16T11:14:34.200Z,69.68
2019-04-16T11:17:38.140Z,65.01
2019-04-16T11:20:41.255Z,66.34
2019-04-16T11:23:47.602Z,69.89
2019-04-16T11:26:51.239Z,67.45
2019-04-16T11:29:54.392Z,66.19
2019-04-16T11:32:57.958Z,59.84
2019-04-16T11:36:00.873Z,63.44
2019-04-16T11:39:07.336Z,62.06
2019-04-16T11:42:10.683Z,59.73
2019-04-16T11:45:14.892Z,62.24
2019-04-16T11:48:18.248Z,59.07
2019-04-16T11:51:21.283Z,60.86
2019-04-16T11:54:24.485Z,58.76
2019-04-16T11:57:29.359Z,60.86
2019-04-16T12:00:41.274Z,56.27
2019-04-16T12:03:56.094Z,57.08
2019-04-16T12:07:20.653Z,56.24
2019-04-16T12:10:58.593Z,52.86
2019-04-16T12:14:42.586Z,56.40
2019-04-16T12:18:04.373Z,56.56
2019-04-16T12:25:04.675Z,50.91
2019-04-16T12:28:30.332Z,50.70
2019-04-16T12:31:53.050Z,35.66
2019-04-16T12:35:25.279Z,34.86
2019-04-16T12:38:35.232Z,36.15
2019-04-16T12:41:51.721Z,33.74
2019-04-16T12:45:13.083Z,36.18
2019-04-16T12:48:36.615Z,34.21
2019-04-16T12:52:08.526Z,32.34
2019-04-16T12:55:32.465Z,35.06
2019-04-16T12:59:02.140Z,32.72
2019-04-16T13:02:20.112Z,31.61
2019-04-16T13:05:29.042Z,32.62
2019-04-16T13:08:57.926Z,30.20
2019-04-16T13:12:19.805Z,30.82
2019-04-16T13:15:34.947Z,32.94
2019-04-16T13:18:57.496Z,29.83
2019-04-16T13:22:01.019Z,31.17
2019-04-16T13:25:33.839Z,30.95
2019-04-16T13:28:36.775Z,31.04
2019-04-16T13:31:40.006Z,30.69
2019-04-16T13:34:43.248Z,35.30
2019-04-16T13:37:46.468Z,31.01
2019-04-16T13:40:50.208Z,33.65
2019-04-16T13:43:58.866Z,32.92
2019-04-16T13:47:03.811Z,29.54
2019-04-16T13:50:15.905Z,29.55
2019-04-16T13:53:41.975Z,31.67
2019-04-16T13:56:51.608Z,29.89
2019-04-16T14:00:08.777Z,28.56
2019-04-16T14:03:14.058Z,29.30
2019-04-16T14:06:17.039Z,30.12
2019-04-16T14:09:19.987Z,30.03
2019-04-16T14:12:40.799Z,28.90
2019-04-16T14:15:32.260Z,31.70
2019-04-16T14:18:35.792Z,28.62
2019-04-16T14:21:39.087Z,28.35
2019-04-16T14:24:42.389Z,28.95
2019-04-16T14:27:45.418Z,30.30
2019-04-16T14:30:50.008Z,31.35
2019-04-16T14:34:07.593Z,31.83
2019-04-16T14:37:10.624Z,32.85
2019-04-16T14:40:18.270Z,33.93
2019-04-16T14:43:29.228Z,29.78
2019-04-16T14:46:31.470Z,31.83
2019-04-16T14:49:34.439Z,30.54
2019-04-16T14:52:37.388Z,29.70
2019-04-16T14:56:01.201Z,31.95
2019-04-16T14:59:34.104Z,32.61
2019-04-16T15:02:41.774Z,33.80
2019-04-16T15:05:54.471Z,32.56
2019-04-16T15:09:09.917Z,31.48
2019-04-16T15:12:41.830Z,33.00
2019-04-16T15:16:10.747Z,31.88
2019-04-16T15:19:27.628Z,31.50
2019-04-16T15:22:40.397Z,31.69
2019-04-16T15:26:13.037Z,32.17
2019-04-16T15:29:23.462Z,33.22
2019-04-16T15:32:48.171Z,32.55
2019-04-16T15:35:57.540Z,32.72
2019-04-16T15:39:06.474Z,34.77
2019-04-16T15:42:49.040Z,35.08
2019-04-16T15:46:26.964Z,34.82
2019-04-16T15:49:55.664Z,34.41
2019-04-16T15:53:03.282Z,35.26
2019-04-16T15:56:10.766Z,35.38
2019-04-16T15:59:33.374Z,39.66
2019-04-16T16:03:05.740Z,35.97
2019-04-16T16:06:12.157Z,36.00
2019-04-16T16:09:22.530Z,38.33
2019-04-16T16:12:27.540Z,38.01
2019-04-16T16:15:30.504Z,36.17
2019-04-16T16:18:35.745Z,39.77
2019-04-16T16:21:38.409Z,37.84
2019-04-16T16:24:42.336Z,38.16
2019-04-16T16:27:47.206Z,38.47
2019-04-16T16:30:50.342Z,39.73
2019-04-16T16:33:53.677Z,39.47
2019-04-16T16:36:57.097Z,39.41
2019-04-16T16:40:00.059Z,40.46
2019-04-16T16:43:06.792Z,40.17
2019-04-16T16:46:30.645Z,39.60
2019-04-16T16:49:33.965Z,39.07
2019-04-16T16:53:05.901Z,40.23
2019-04-16T16:56:15.047Z,39.13
2019-04-16T16:59:34.068Z,41.27
2019-04-16T17:02:59.805Z,42.29
2019-04-16T17:06:04.472Z,48.91
2019-04-16T17:09:12.348Z,46.57
2019-04-16T17:12:15.651Z,54.13
2019-04-16T17:15:19.047Z,54.30
2019-04-16T17:18:22.003Z,52.52
2019-04-16T17:21:24.965Z,56.49
2019-04-16T17:24:27.908Z,50.79
2019-04-16T17:27:31.254Z,62.92
2019-04-16T17:30:34.356Z,61.80
2019-04-16T17:33:37.683Z,68.56
2019-04-16T17:36:40.620Z,59.63
2019-04-16T17:39:54.721Z,52.34
2019-04-16T17:43:02.328Z,66.94
2019-04-16T17:46:27.733Z,68.94
2019-04-16T17:49:35.441Z,73.26
2019-04-16T17:52:42.486Z,75.86
2019-04-16T17:55:50.332Z,76.86
2019-04-16T17:58:59.750Z,76.19
2019-04-16T18:02:21.342Z,78.61
2019-04-16T18:05:34.625Z,80.20
2019-04-16T18:09:03.930Z,79.23
2019-04-16T18:12:34.425Z,82.27
2019-04-16T18:16:06.120Z,81.30
2019-04-16T18:19:24.812Z,85.05
2019-04-16T18:22:44.895Z,79.55
2019-04-16T18:26:12.143Z,72.40
2019-04-16T18:29:46.987Z,72.40
2019-04-16T18:33:08.146Z,74.49
2019-04-16T18:36:30.432Z,76.63
2019-04-16T18:39:44.866Z,78.10
2019-04-16T18:43:19.544Z,79.70
2019-04-16T18:46:37.357Z,80.41
2019-04-16T18:49:40.778Z,80.93
2019-04-16T18:52:44.171Z,81.00
2019-04-16T18:55:47.380Z,81.56
2019-04-16T18:58:50.423Z,81.86
2019-04-16T19:01:58.767Z,84.99
2019-04-16T19:05:02.716Z,85.30
2019-04-16T19:08:08.283Z,82.16
2019-04-16T19:11:11.254Z,83.54
2019-04-16T19:14:14.279Z,83.34
2019-04-16T19:17:17.521Z,84.18
2019-04-16T19:20:20.562Z,83.67
2019-04-16T19:23:23.502Z,85.44
2019-04-16T19:26:30.086Z,85.31
2019-04-16T19:29:32.058Z,89.31
2019-04-16T19:32:35.341Z,89.30
2019-04-16T19:35:38.618Z,89.14
2019-04-16T19:38:41.532Z,87.76
2019-04-16T19:41:44.485Z,91.73
2019-04-16T19:44:47.752Z,90.13
2019-04-16T19:47:50.695Z,90.80
2019-04-16T19:50:53.662Z,90.78
2019-04-16T19:53:57.062Z,90.86
2019-04-16T19:57:00.341Z,93.16
2019-04-16T20:00:03.905Z,92.79
2019-04-16T20:03:08.448Z,96.27
2019-04-16T20:06:11.854Z,95.94
2019-04-16T20:09:14.886Z,97.65
2019-04-16T20:12:19.683Z,100.00
2019-04-16T20:15:22.866Z,100.00
2019-04-16T20:18:30.253Z,99.88
2019-04-16T20:21:33.346Z,100.00
2019-04-16T20:24:36.293Z,100.00
2019-04-16T20:27:40.751Z,100.00
2019-04-16T20:30:44.458Z,100.00
2019-04-16T20:33:48.588Z,100.00
2019-04-16T20:36:52.181Z,100.00
2019-04-16T20:39:56.707Z,100.00
2019-04-16T20:42:59.670Z,100.00
2019-04-16T20:46:02.984Z,100.00
2019-04-16T20:49:09.932Z,100.00
2019-04-16T20:52:11.422Z,100.00
2019-04-16T20:55:16.046Z,100.00
2019-04-16T20:58:19.500Z,100.00
2019-04-16T21:01:34.042Z,100.00
2019-04-16T21:04:27.345Z,100.00
2019-04-16T21:07:30.354Z,100.00
2019-04-16T21:10:35.669Z,100.00
2019-04-16T21:13:38.138Z,100.00
2019-04-16T21:16:41.064Z,100.00
2019-04-16T21:19:47.990Z,100.00
2019-04-16T21:50:47.173Z,100.00
2019-04-16T21:53:49.650Z,100.00
2019-04-16T21:56:54.801Z,100.00
2019-04-16T22:00:05.071Z,100.00
2019-04-16T22:03:59.880Z,100.00
2019-04-16T22:07:02.923Z,100.00
2019-04-16T22:10:06.301Z,100.00
2019-04-16T22:13:09.218Z,100.00
2019-04-16T22:16:12.924Z,100.00
2019-04-16T22:19:15.819Z,100.00
2019-04-16T22:22:19.352Z,100.00
2019-04-16T22:25:23.738Z,100.00
2019-04-16T22:28:28.520Z,100.00
2019-04-16T22:31:32.160Z,100.00
2019-04-16T22:34:35.062Z,100.00
2019-04-16T22:37:38.322Z,100.00
2019-04-16T22:40:54.922Z,100.00
2019-04-16T22:44:12.358Z,100.00
2019-04-16T22:47:23.061Z,100.00
2019-04-16T22:50:26.368Z,100.00
2019-04-16T22:53:29.290Z,100.00
2019-04-16T22:56:54.400Z,100.00
2019-04-16T22:59:57.324Z,100.00
2019-04-16T23:03:00.236Z,100.00
2019-04-16T23:06:05.451Z,100.00
2019-04-16T23:09:08.161Z,100.00
2019-04-16T23:12:12.938Z,100.00
2019-04-16T23:15:16.269Z,100.00
2019-04-16T23:18:19.358Z,100.00
2019-04-16T23:21:22.595Z,100.00
2019-04-16T23:46:06.884Z,100.00
2019-04-16T23:49:29.954Z,100.00
2019-04-16T23:52:35.652Z,100.00
2019-04-16T23:55:53.083Z,100.00
2019-04-16T23:59:02.563Z,100.00
